METAR AND TAF INFORMATION
METAR FOR EFKT
ADDS - METARS form results

(0223 UTC 01 June 2020)
Data provider http://aviationweather.gov/metar/data/
 
METAR text: EFKT 010150Z AUTO VRB01KT CAVOK 08/04 Q1028
Conditions at: EFKT (KITTILA , FI) observed 0150 UTC 01 June 2020
Temperature: 8.0°C (46°F)
Dewpoint: 4.0°C (39°F) [RH = 76%]
Pressure (altimeter): 30.35 inches Hg (1028.0 mb)
Winds: variable direction winds at 1 MPH (1 knots; 0.5 m/s)
Visibility: 6 or more miles (10+ km)
Ceiling: ceiling and visibility are OK
Clouds: unknown
Weather: no significant weather observed at this time

 AIRPORT MAP

 RUNWAY INFORMATION
Runway 16 Runway length 8202 ft Runway width 148 ft
Runway elevation 632 ft Runway displaced threshold 0 ft Runway heading 166
Runway 34 Runway length 8202 ft Runway width 148 ft
Runway elevation 644 ft Runway displaced threshold 0 ft Runway heading 346

 AIRPORT FREQUENCIES
Type AFIS Name AFIS Frequency 118.95 MHZ
Type ATIS Name ATIS Frequency 133.85 MHZ

 AIRPORT NEAR NAVIGATION AIDS
Type NDB Name Kittila Frequency 328 KHZ



Powered by Virtual Airlines Manager [v2.6.2]